Time;durP1;ratioP1;P1;durP2;ratioP2;P2;SDS_P1;SDS_P2;PMS_P1;PMS_P2;Temp;Humidity;BMP_temperature;BMP_pressure;BME280_temperature;BME280_humidity;BME280_pressure;Samples;Min_cycle;Max_cycle;Signal;HPM_P1;HPM_P2
2022/09/11 00:00:27;;;;;;;9.27;8.38;;;15.30;99.90;;;;;;4971149;28;20244;-85
2022/09/11 00:02:55;;;;;;;10.02;8.27;;;15.20;99.90;;;;;;4962848;28;20208;-83
2022/09/11 00:05:22;;;;;;;8.90;8.10;;;15.20;99.90;;;;;;4961164;28;20213;-83
2022/09/11 00:07:51;;;;;;;12.20;8.57;;;15.30;99.90;;;;;;4937067;28;20545;-84
2022/09/11 00:10:18;;;;;;;13.10;9.27;;;15.20;99.90;;;;;;4976897;28;20213;-84
2022/09/11 00:12:48;;;;;;;9.70;8.90;;;15.00;99.90;;;;;;4964246;28;20213;-82
2022/09/11 00:15:17;;;;;;;11.05;8.93;;;14.90;99.90;;;;;;4976803;28;20305;-82
2022/09/11 00:17:52;;;;;;;9.30;8.50;;;14.70;99.90;;;;;;4966514;28;20219;-84
2022/09/11 00:20:18;;;;;;;8.95;8.15;;;14.70;99.90;;;;;;4956034;28;20299;-83
2022/09/11 00:22:47;;;;;;;11.40;10.20;;;14.70;99.90;;;;;;4955934;29;20197;-84
2022/09/11 00:25:16;;;;;;;11.15;10.05;;;14.60;99.90;;;;;;4946710;29;20247;-85
2022/09/11 00:27:44;;;;;;;10.90;9.88;;;14.50;99.90;;;;;;4959707;28;20236;-84
2022/09/11 00:30:13;;;;;;;12.30;11.20;;;14.50;99.90;;;;;;4977797;28;20216;-84
2022/09/11 00:32:40;;;;;;;11.73;10.63;;;14.60;99.90;;;;;;4981804;28;20215;-85
2022/09/11 00:35:09;;;;;;;10.90;9.90;;;14.80;99.90;;;;;;4963445;29;20247;-85
2022/09/11 00:37:37;;;;;;;13.85;12.20;;;14.90;99.90;;;;;;4963636;29;20232;-86
2022/09/11 00:40:04;;;;;;;12.88;11.57;;;14.90;99.90;;;;;;4969453;28;20526;-85
2022/09/11 00:42:32;;;;;;;13.38;11.95;;;15.00;99.90;;;;;;4971280;28;20213;-85
2022/09/11 00:45:05;;;;;;;13.80;12.40;;;15.00;99.90;;;;;;4964763;29;20215;-84
2022/09/11 00:47:36;;;;;;;13.40;12.20;;;15.00;99.90;;;;;;4971563;28;20198;-84
2022/09/11 00:50:15;;;;;;;15.45;12.85;;;15.00;99.90;;;;;;4961737;29;20243;-83
2022/09/11 00:52:58;;;;;;;12.47;11.30;;;14.90;99.90;;;;;;4970556;28;20206;-85
2022/09/11 00:55:31;;;;;;;13.23;11.98;;;15.00;99.90;;;;;;4963404;28;20459;-85
2022/09/11 00:58:03;;;;;;;11.32;10.23;;;14.80;99.90;;;;;;4953665;28;20237;-87
2022/09/11 01:00:32;;;;;;;10.60;9.57;;;14.90;99.90;;;;;;4938164;29;20207;-85
2022/09/11 01:03:02;;;;;;;12.70;10.43;;;14.90;99.90;;;;;;4965755;29;20222;-86
2022/09/11 01:05:35;;;;;;;11.18;10.20;;;14.90;99.90;;;;;;4958074;29;20189;-86
2022/09/11 01:08:03;;;;;;;10.73;9.82;;;15.00;99.90;;;;;;4955855;28;20212;-85
2022/09/11 01:10:53;;;;;;;10.52;9.63;;;15.00;99.90;;;;;;4960701;28;20245;-86
2022/09/11 01:13:51;;;;;;;10.13;8.82;;;15.10;99.90;;;;;;4962448;28;20210;-86
2022/09/11 01:16:39;;;;;;;10.85;9.93;;;15.10;99.90;;;;;;4969043;29;20198;-85
2022/09/11 01:19:36;;;;;;;11.07;10.05;;;15.10;99.90;;;;;;4976801;29;20247;-85
2022/09/11 01:22:42;;;;;;;14.32;12.15;;;15.10;99.90;;;;;;4977175;29;20216;-86
2022/09/11 01:25:39;;;;;;;12.18;10.98;;;15.20;99.90;;;;;;4955350;29;20203;-85
2022/09/11 01:28:24;;;;;;;11.80;10.43;;;15.40;99.90;;;;;;4958625;28;20307;-84
2022/09/11 01:31:03;;;;;;;32.20;11.48;;;15.50;99.90;;;;;;4973162;28;20242;-87
2022/09/11 01:33:54;;;;;;;11.05;10.05;;;15.30;99.90;;;;;;4964951;28;20603;-86
2022/09/11 01:36:33;;;;;;;13.60;12.32;;;15.30;99.90;;;;;;4971407;28;20216;-87
2022/09/11 01:39:03;;;;;;;16.00;11.50;;;15.30;99.90;;;;;;4974696;28;20219;-86
2022/09/11 01:41:59;;;;;;;13.90;12.50;;;15.40;99.90;;;;;;4979212;28;20239;-88
2022/09/11 01:44:33;;;;;;;16.40;11.77;;;15.30;99.90;;;;;;4952512;28;20302;-85
2022/09/11 01:47:02;;;;;;;11.05;10.05;;;15.20;99.90;;;;;;4957829;28;20210;-85
2022/09/11 01:49:41;;;;;;;12.40;11.10;;;15.20;99.90;;;;;;4958977;28;20430;-86
2022/09/11 01:52:18;;;;;;;14.82;13.23;;;15.30;99.90;;;;;;4951593;29;20216;-85
2022/09/11 01:54:52;;;;;;;12.88;11.57;;;15.50;99.90;;;;;;4970330;28;20305;-85
2022/09/11 01:57:38;;;;;;;13.13;11.85;;;15.40;99.90;;;;;;4974970;28;20271;-85
2022/09/11 02:00:10;;;;;;;14.20;12.70;;;15.50;99.90;;;;;;4962517;28;20275;-85
2022/09/11 02:02:43;;;;;;;14.63;13.25;;;15.30;99.90;;;;;;4966534;28;20212;-86
2022/09/11 02:06:03;;;;;;;16.23;12.43;;;15.20;99.90;;;;;;4968134;28;20233;-85
2022/09/11 02:08:48;;;;;;;15.23;10.77;;;15.20;99.90;;;;;;4930649;28;20204;-85
2022/09/11 02:11:18;;;;;;;15.68;13.68;;;15.40;99.90;;;;;;4966604;28;20211;-85
2022/09/11 02:14:13;;;;;;;14.88;13.48;;;15.30;99.90;;;;;;4975400;28;20286;-85
2022/09/11 02:17:02;;;;;;;16.17;14.38;;;15.20;99.90;;;;;;4956521;29;20213;-85
2022/09/11 02:19:31;;;;;;;17.07;14.90;;;15.30;99.90;;;;;;4958423;28;20238;-86
2022/09/11 02:21:58;;;;;;;21.52;16.33;;;15.10;99.90;;;;;;4969513;28;20457;-85
2022/09/11 02:24:27;;;;;;;19.77;15.85;;;15.20;99.90;;;;;;4968857;28;20223;-86
2022/09/11 02:26:59;;;;;;;14.30;12.85;;;15.20;99.90;;;;;;4947930;28;20212;-86
2022/09/11 02:29:26;;;;;;;19.67;16.85;;;15.10;99.90;;;;;;4953346;28;20258;-87
2022/09/11 02:31:59;;;;;;;17.50;15.77;;;15.10;99.90;;;;;;4949324;28;20240;-86
2022/09/11 02:34:30;;;;;;;18.67;16.38;;;15.10;99.90;;;;;;4956495;28;20286;-86
2022/09/11 02:37:15;;;;;;;18.98;17.05;;;15.00;99.90;;;;;;4952761;28;20765;-86
2022/09/11 02:40:07;;;;;;;18.38;16.27;;;14.90;99.90;;;;;;4969888;28;20300;-87
2022/09/11 02:43:18;;;;;;;24.10;18.63;;;15.00;99.90;;;;;;4963187;28;20220;-87
2022/09/11 02:46:17;;;;;;;19.15;16.85;;;14.90;99.90;;;;;;4956689;28;20208;-84
2022/09/11 02:49:02;;;;;;;24.83;18.38;;;15.00;99.90;;;;;;4963614;28;20229;-84
2022/09/11 02:51:43;;;;;;;20.23;17.63;;;14.80;99.90;;;;;;4969485;28;20199;-86
2022/09/11 02:54:17;;;;;;;20.35;18.10;;;15.00;99.90;;;;;;4976033;28;20250;-86
2022/09/11 02:56:56;;;;;;;21.63;19.38;;;15.00;99.90;;;;;;4962381;28;20195;-86
2022/09/11 03:00:06;;;;;;;23.88;19.50;;;15.00;99.90;;;;;;4977461;28;20263;-86
2022/09/11 03:02:40;;;;;;;25.67;18.80;;;15.10;99.90;;;;;;4976803;28;20260;-87
2022/09/11 03:05:09;;;;;;;21.15;18.38;;;14.80;99.90;;;;;;4957597;29;20276;-86
2022/09/11 03:07:39;;;;;;;19.80;17.67;;;14.90;99.90;;;;;;4932105;29;20273;-87
2022/09/11 03:10:10;;;;;;;27.00;18.55;;;14.90;99.90;;;;;;4943343;29;20527;-86
2022/09/11 03:12:40;;;;;;;19.73;17.00;;;14.90;99.90;;;;;;4976957;28;20232;-87
2022/09/11 03:15:10;;;;;;;22.40;18.33;;;15.00;99.90;;;;;;4976854;28;20264;-86
2022/09/11 03:17:46;;;;;;;26.13;17.65;;;14.90;99.90;;;;;;4974662;28;20236;-86
2022/09/11 03:20:13;;;;;;;19.75;17.75;;;14.70;99.90;;;;;;4962216;28;20230;-86
2022/09/11 03:22:43;;;;;;;19.30;17.08;;;14.70;99.90;;;;;;4963325;28;20277;-86
2022/09/11 03:25:16;;;;;;;21.25;17.33;;;14.70;99.90;;;;;;4953903;29;20239;-86
2022/09/11 03:27:48;;;;;;;20.05;16.45;;;14.60;99.90;;;;;;4938443;29;20227;-87
2022/09/11 03:30:23;;;;;;;21.65;17.40;;;14.90;99.90;;;;;;4948717;28;20218;-88
2022/09/11 03:33:04;;;;;;;17.63;15.80;;;14.80;99.90;;;;;;4948591;28;20467;-88
2022/09/11 03:35:43;;;;;;;15.00;13.57;;;14.70;99.90;;;;;;4945186;29;20208;-87
2022/09/11 03:38:11;;;;;;;16.25;14.25;;;14.70;99.90;;;;;;4971596;28;20239;-86
2022/09/11 03:40:43;;;;;;;16.15;13.75;;;14.60;99.90;;;;;;4947967;28;20265;-82
2022/09/11 03:43:15;;;;;;;13.55;12.35;;;14.50;99.90;;;;;;4966771;28;20219;-81
2022/09/11 03:45:43;;;;;;;15.18;13.70;;;14.40;99.90;;;;;;4968883;28;20275;-83
2022/09/11 03:48:10;;;;;;;14.85;12.80;;;14.50;99.90;;;;;;4963407;28;20242;-80
2022/09/11 03:50:37;;;;;;;13.57;11.57;;;14.40;99.90;;;;;;4965615;28;20234;-82
2022/09/11 03:53:04;;;;;;;12.80;11.43;;;14.40;99.90;;;;;;4963486;28;20256;-81
2022/09/11 03:55:32;;;;;;;14.88;12.85;;;14.30;99.90;;;;;;4970031;28;20210;-81
2022/09/11 03:58:00;;;;;;;11.80;10.68;;;14.30;99.90;;;;;;4968859;28;20300;-82
2022/09/11 04:00:27;;;;;;;12.43;11.23;;;14.30;99.90;;;;;;4970020;28;20212;-82
2022/09/11 04:02:55;;;;;;;16.63;12.65;;;14.20;99.90;;;;;;4969976;28;20207;-81
2022/09/11 04:05:24;;;;;;;13.10;11.85;;;14.20;99.90;;;;;;4973894;28;20254;-82
2022/09/11 04:07:52;;;;;;;11.27;10.18;;;14.10;99.90;;;;;;4968422;28;20205;-82
2022/09/11 04:10:20;;;;;;;13.48;12.05;;;14.20;99.90;;;;;;4949049;28;20231;-82
2022/09/11 04:12:48;;;;;;;13.18;11.90;;;14.30;99.90;;;;;;4958833;28;20206;-81
2022/09/11 04:15:15;;;;;;;13.63;12.00;;;14.20;99.90;;;;;;4968243;28;20269;-82
2022/09/11 04:17:42;;;;;;;14.02;11.98;;;14.20;99.90;;;;;;4978778;28;20235;-83
2022/09/11 04:20:09;;;;;;;11.60;10.50;;;14.20;99.90;;;;;;4964389;29;20210;-81
2022/09/11 04:22:38;;;;;;;11.25;10.05;;;14.30;99.90;;;;;;4975484;28;20242;-81
2022/09/11 04:25:06;;;;;;;10.73;9.63;;;14.20;99.90;;;;;;4961513;28;20681;-79
2022/09/11 04:27:32;;;;;;;13.35;9.15;;;14.30;99.90;;;;;;4959238;28;20220;-81
2022/09/11 04:29:59;;;;;;;10.75;9.75;;;14.30;99.90;;;;;;4951167;29;20246;-80
2022/09/11 04:32:28;;;;;;;12.35;10.95;;;14.30;99.90;;;;;;4959119;28;20211;-82
2022/09/11 04:34:55;;;;;;;14.45;9.25;;;14.30;99.90;;;;;;4965653;28;20198;-80
2022/09/11 04:37:22;;;;;;;10.30;9.23;;;14.40;99.90;;;;;;4973837;28;20207;-80
2022/09/11 04:39:49;;;;;;;10.50;9.50;;;14.40;99.90;;;;;;4965451;28;20218;-81
2022/09/11 04:42:16;;;;;;;13.02;11.68;;;14.40;99.90;;;;;;4976412;28;20223;-82
2022/09/11 04:44:43;;;;;;;12.20;10.98;;;14.40;99.90;;;;;;4956334;28;20206;-80
2022/09/11 04:47:09;;;;;;;11.60;10.50;;;14.40;99.90;;;;;;4970082;28;20542;-82
2022/09/11 04:49:37;;;;;;;16.05;10.43;;;14.40;99.90;;;;;;4965198;28;20538;-81
2022/09/11 04:52:06;;;;;;;13.75;10.57;;;14.40;99.90;;;;;;4966937;28;20212;-82
2022/09/11 04:54:32;;;;;;;11.35;9.80;;;14.40;99.90;;;;;;4972437;28;20282;-81
2022/09/11 04:57:03;;;;;;;10.10;9.07;;;14.50;99.90;;;;;;4949908;28;20447;-81
2022/09/11 04:59:32;;;;;;;12.30;9.38;;;14.60;99.90;;;;;;4962334;28;20235;-80
2022/09/11 05:01:59;;;;;;;8.63;7.88;;;14.60;99.90;;;;;;4980049;28;20203;-80
2022/09/11 05:04:26;;;;;;;11.40;8.15;;;14.70;99.90;;;;;;4976037;28;20287;-82
2022/09/11 05:06:53;;;;;;;11.10;7.35;;;14.70;99.90;;;;;;4969554;28;20208;-80
2022/09/11 05:09:19;;;;;;;9.60;8.75;;;14.60;99.90;;;;;;4969270;28;20580;-79
2022/09/11 05:11:49;;;;;;;8.88;7.88;;;14.60;99.90;;;;;;4971805;28;20208;-81
2022/09/11 05:14:17;;;;;;;8.70;7.80;;;14.80;99.90;;;;;;4950455;28;20282;-81
2022/09/11 05:16:44;;;;;;;10.25;6.88;;;14.90;99.90;;;;;;4976119;28;20203;-80
2022/09/11 05:19:11;;;;;;;8.00;7.38;;;14.90;99.90;;;;;;4966152;28;20297;-80
2022/09/11 05:21:38;;;;;;;7.78;6.93;;;15.00;99.90;;;;;;4974820;28;20258;-81
2022/09/11 05:24:05;;;;;;;7.88;7.22;;;15.00;99.90;;;;;;4973899;28;20202;-80
2022/09/11 05:26:34;;;;;;;7.10;6.40;;;14.90;99.90;;;;;;4962977;28;20209;-81
2022/09/11 05:29:10;;;;;;;8.00;7.30;;;15.00;99.90;;;;;;4975197;28;20211;-81
2022/09/11 05:31:37;;;;;;;9.40;8.40;;;15.10;99.90;;;;;;4971170;28;20321;-81
2022/09/11 05:34:06;;;;;;;10.50;9.50;;;15.30;99.90;;;;;;4970772;28;20208;-81
2022/09/11 05:36:34;;;;;;;10.73;9.68;;;15.30;99.90;;;;;;4974670;28;20240;-80
2022/09/11 05:39:02;;;;;;;11.00;10.00;;;15.30;99.90;;;;;;4953945;29;20570;-82
2022/09/11 05:41:29;;;;;;;11.10;10.02;;;15.30;99.90;;;;;;4960579;28;20873;-80
2022/09/11 05:43:57;;;;;;;9.75;8.80;;;15.40;99.90;;;;;;4973085;28;20212;-81
2022/09/11 05:46:24;;;;;;;9.37;8.40;;;15.60;99.90;;;;;;4976097;28;20206;-80
2022/09/11 05:48:53;;;;;;;8.02;7.20;;;15.90;99.90;;;;;;4974848;28;21105;-81
2022/09/11 05:51:21;;;;;;;8.43;7.68;;;15.70;99.90;;;;;;4968990;28;20212;-82
2022/09/11 05:53:52;;;;;;;8.85;8.15;;;15.70;99.90;;;;;;4971020;28;20209;-82
2022/09/11 05:56:23;;;;;;;7.93;7.13;;;15.80;99.90;;;;;;4967561;28;20206;-82
2022/09/11 05:58:51;;;;;;;8.70;7.47;;;15.80;99.90;;;;;;4960902;28;20482;-84
2022/09/11 06:01:27;;;;;;;8.25;7.55;;;15.60;99.90;;;;;;4959440;28;20205;-81
2022/09/11 06:03:56;;;;;;;9.35;6.80;;;15.60;99.90;;;;;;4957112;28;20296;-82
2022/09/11 06:06:24;;;;;;;8.32;7.47;;;15.60;99.90;;;;;;4963470;28;20207;-81
2022/09/11 06:08:52;;;;;;;8.10;6.83;;;15.60;99.90;;;;;;4960402;28;20238;-82
2022/09/11 06:11:20;;;;;;;8.90;8.10;;;15.60;99.90;;;;;;4963285;28;20450;-82
2022/09/11 06:13:49;;;;;;;8.97;8.17;;;15.70;99.90;;;;;;4958326;28;20456;-82
2022/09/11 06:16:18;;;;;;;9.93;8.93;;;15.80;99.90;;;;;;4972810;28;20536;-81
2022/09/11 06:18:49;;;;;;;11.70;10.47;;;15.90;99.90;;;;;;4963731;28;20493;-80
2022/09/11 06:21:22;;;;;;;11.70;10.20;;;15.90;99.90;;;;;;4968526;28;20456;-82
2022/09/11 06:23:50;;;;;;;11.17;10.00;;;15.90;99.90;;;;;;4953398;28;20437;-83
2022/09/11 06:26:20;;;;;;;13.10;10.27;;;16.00;99.90;;;;;;4973758;28;20445;-80
2022/09/11 06:28:49;;;;;;;9.50;8.57;;;15.90;99.90;;;;;;4977501;29;20466;-80
2022/09/11 06:31:19;;;;;;;10.73;9.60;;;16.00;99.90;;;;;;4948030;29;20435;-79
2022/09/11 06:33:50;;;;;;;12.43;11.17;;;15.90;99.90;;;;;;4958085;28;20813;-82
2022/09/11 06:36:20;;;;;;;10.67;9.43;;;15.90;99.90;;;;;;4975563;28;20454;-80
2022/09/11 06:38:53;;;;;;;8.53;7.73;;;16.00;99.90;;;;;;4987026;28;20531;-82
2022/09/11 06:41:25;;;;;;;9.70;8.90;;;15.90;99.90;;;;;;4960030;28;20455;-83
2022/09/11 06:43:52;;;;;;;11.00;9.47;;;15.90;99.90;;;;;;4956890;28;20449;-82
2022/09/11 06:46:22;;;;;;;11.07;10.00;;;15.90;99.90;;;;;;4959766;28;20506;-83
2022/09/11 06:48:50;;;;;;;9.20;8.27;;;15.90;99.90;;;;;;4966538;28;20499;-81
2022/09/11 06:51:20;;;;;;;10.10;9.03;;;15.90;99.90;;;;;;4964046;28;20509;-81
2022/09/11 06:53:47;;;;;;;10.63;9.60;;;16.00;99.90;;;;;;4966338;28;20452;-81
2022/09/11 06:56:16;;;;;;;12.33;11.00;;;16.00;99.90;;;;;;4955881;28;20687;-80
2022/09/11 06:58:44;;;;;;;10.67;9.47;;;16.00;99.90;;;;;;4955412;28;21035;-80
2022/09/11 07:01:15;;;;;;;10.00;9.10;;;15.90;99.90;;;;;;4957903;28;20535;-80
2022/09/11 07:03:47;;;;;;;11.50;10.40;;;15.80;99.90;;;;;;4955646;28;20463;-80
2022/09/11 07:06:21;;;;;;;10.80;8.83;;;15.70;99.90;;;;;;4957507;28;20759;-80
2022/09/11 07:08:59;;;;;;;11.53;9.90;;;15.80;99.90;;;;;;4951978;28;21049;-80
2022/09/11 07:11:28;;;;;;;10.90;9.03;;;15.70;99.90;;;;;;4952681;28;20707;-81
2022/09/11 07:13:55;;;;;;;11.70;10.57;;;15.80;99.90;;;;;;4952085;28;20446;-81
2022/09/11 07:16:22;;;;;;;12.80;9.10;;;15.80;99.90;;;;;;4955463;28;20452;-81
2022/09/11 07:18:49;;;;;;;9.60;8.70;;;15.90;99.90;;;;;;4961663;28;20766;-80
2022/09/11 07:21:22;;;;;;;11.87;10.77;;;16.20;99.90;;;;;;4969578;28;20537;-81
2022/09/11 07:23:54;;;;;;;13.00;11.10;;;16.30;99.90;;;;;;4956533;28;20443;-83
2022/09/11 07:26:25;;;;;;;10.93;9.93;;;16.30;99.90;;;;;;4954753;28;20449;-83
2022/09/11 07:28:54;;;;;;;10.83;9.73;;;16.30;99.90;;;;;;4947948;28;20493;-81
2022/09/11 07:31:25;;;;;;;12.00;10.80;;;16.20;99.90;;;;;;4958462;28;20478;-81
2022/09/11 07:33:52;;;;;;;15.10;13.53;;;16.40;99.90;;;;;;4953429;28;20440;-84
2022/09/11 07:36:21;;;;;;;12.10;10.90;;;16.60;99.90;;;;;;4955937;28;20767;-82
2022/09/11 07:38:50;;;;;;;10.80;9.93;;;17.00;99.90;;;;;;4972244;28;20573;-82
2022/09/11 07:41:20;;;;;;;11.33;10.27;;;17.40;99.90;;;;;;4958591;28;20535;-81
2022/09/11 07:43:55;;;;;;;10.20;9.20;;;17.40;99.90;;;;;;4960450;29;21023;-80
2022/09/11 07:46:23;;;;;;;10.77;9.80;;;17.50;99.90;;;;;;4957431;29;20526;-79
2022/09/11 07:48:50;;;;;;;9.30;8.50;;;17.40;99.90;;;;;;4962228;28;20730;-80
2022/09/11 07:51:20;;;;;;;9.63;8.70;;;17.30;99.90;;;;;;4949114;29;20454;-83
2022/09/11 07:53:49;;;;;;;9.33;8.53;;;17.60;99.90;;;;;;4958235;29;20513;-82
2022/09/11 07:56:18;;;;;;;9.43;8.43;;;17.60;99.90;;;;;;4944961;29;20563;-81
2022/09/11 07:58:46;;;;;;;8.40;7.53;;;17.50;99.90;;;;;;4953812;29;20903;-82
2022/09/11 08:01:19;;;;;;;7.50;6.80;;;17.60;99.90;;;;;;4948927;29;20452;-81
2022/09/11 08:03:46;;;;;;;8.10;7.40;;;17.80;99.90;;;;;;4951964;29;20450;-81
2022/09/11 08:06:16;;;;;;;6.40;5.80;;;17.90;99.90;;;;;;4954068;28;20446;-82
2022/09/11 08:08:55;;;;;;;6.03;5.53;;;17.90;99.90;;;;;;4951914;29;20538;-84
2022/09/11 08:11:23;;;;;;;5.93;5.40;;;17.90;99.90;;;;;;4950034;29;20474;-82
2022/09/11 08:13:52;;;;;;;9.77;5.93;;;17.80;99.90;;;;;;4954337;29;20858;-83
2022/09/11 08:16:23;;;;;;;6.43;5.93;;;17.90;99.90;;;;;;4937453;29;20483;-82
2022/09/11 08:18:51;;;;;;;6.53;5.90;;;18.00;99.90;;;;;;4953514;29;20853;-80
2022/09/11 08:21:18;;;;;;;6.60;6.10;;;18.00;99.90;;;;;;4949281;29;20765;-83
2022/09/11 08:23:45;;;;;;;7.50;6.90;;;18.10;99.90;;;;;;4958437;29;20445;-82
2022/09/11 08:26:18;;;;;;;6.33;5.73;;;18.50;99.90;;;;;;4932627;29;20537;-83
2022/09/11 08:28:45;;;;;;;6.60;6.00;;;19.00;99.90;;;;;;4942175;29;20442;-80
2022/09/11 08:31:13;;;;;;;6.20;5.70;;;19.20;99.90;;;;;;4954292;29;20479;-80
2022/09/11 08:33:40;;;;;;;5.80;5.30;;;19.40;99.90;;;;;;4961117;29;20468;-81
2022/09/11 08:36:10;;;;;;;5.77;5.30;;;19.50;99.90;;;;;;4962039;29;20449;-83
2022/09/11 08:38:37;;;;;;;6.80;6.07;;;19.40;99.90;;;;;;4960116;29;20812;-83
2022/09/11 08:41:22;;;;;;;7.40;5.80;;;19.30;99.90;;;;;;4957302;29;20440;-81
2022/09/11 08:44:09;;;;;;;5.30;4.90;;;19.00;99.90;;;;;;4960830;29;20540;-82
2022/09/11 08:46:41;;;;;;;5.93;5.30;;;19.00;99.90;;;;;;4960242;29;20487;-83
2022/09/11 08:49:25;;;;;;;5.50;5.00;;;18.90;99.90;;;;;;4957542;29;20505;-80
2022/09/11 08:51:57;;;;;;;5.17;4.77;;;18.60;99.90;;;;;;4958840;29;20423;-83
2022/09/11 08:54:27;;;;;;;8.40;4.10;;;18.60;99.90;;;;;;4954403;29;20517;-83
2022/09/11 08:57:07;;;;;;;4.77;4.47;;;18.60;99.90;;;;;;4959762;29;21012;-84
2022/09/11 09:00:15;;;;;;;5.50;5.10;;;18.50;99.90;;;;;;4956776;29;20495;-82
2022/09/11 09:03:01;;;;;;;6.60;5.10;;;18.40;99.90;;;;;;4916977;29;20439;-83
2022/09/11 09:06:07;;;;;;;7.93;5.20;;;17.90;99.90;;;;;;4919650;29;20631;-79
2022/09/11 09:09:12;;;;;;;5.93;5.10;;;18.00;99.90;;;;;;4950651;29;20423;-83
2022/09/11 09:11:51;;;;;;;5.90;5.40;;;18.20;99.90;;;;;;4953532;29;20432;-84
2022/09/11 09:14:20;;;;;;;6.20;5.60;;;18.60;99.90;;;;;;4959122;29;20504;-82
2022/09/11 09:16:56;;;;;;;7.73;5.70;;;19.00;99.90;;;;;;4962368;29;20449;-82
2022/09/11 09:19:49;;;;;;;6.63;5.53;;;19.30;99.90;;;;;;4950466;29;20486;-79
2022/09/11 09:22:53;;;;;;;6.77;5.50;;;19.30;99.90;;;;;;4941810;29;20445;-82
2022/09/11 09:25:22;;;;;;;5.30;4.80;;;19.50;99.90;;;;;;4953567;28;20438;-84
2022/09/11 09:27:59;;;;;;;9.80;5.80;;;19.60;99.90;;;;;;4937976;29;20450;-80
2022/09/11 09:30:29;;;;;;;9.87;5.97;;;19.50;99.90;;;;;;4931532;29;20457;-81
2022/09/11 09:33:14;;;;;;;6.53;6.00;;;19.70;99.90;;;;;;4939156;29;20475;-81
2022/09/11 09:35:43;;;;;;;5.10;4.67;;;19.10;99.90;;;;;;4942176;29;20521;-82
2022/09/11 09:38:15;;;;;;;5.63;5.23;;;18.80;99.90;;;;;;4959717;29;20529;-79
2022/09/11 09:41:16;;;;;;;5.97;5.50;;;18.60;99.90;;;;;;4963269;29;20458;-86
2022/09/11 09:43:58;;;;;;;5.60;5.20;;;18.60;99.90;;;;;;4961454;29;20473;-83
2022/09/11 09:46:47;;;;;;;7.13;6.47;;;18.80;99.90;;;;;;4958930;29;20427;-81
2022/09/11 09:49:24;;;;;;;6.17;5.67;;;18.90;99.90;;;;;;4958661;29;20465;-83
2022/09/11 09:52:01;;;;;;;7.93;5.83;;;18.90;99.90;;;;;;4951986;29;20472;-84
2022/09/11 09:54:33;;;;;;;5.87;5.37;;;19.10;99.90;;;;;;4967238;29;20456;-81
2022/09/11 09:57:02;;;;;;;6.37;5.80;;;19.40;99.90;;;;;;4956186;29;20437;-82
2022/09/11 10:00:01;;;;;;;7.53;5.87;;;19.80;99.90;;;;;;4960217;29;20504;-84
2022/09/11 10:02:40;;;;;;;6.47;5.97;;;19.90;99.90;;;;;;4958729;29;20510;-80
2022/09/11 10:05:12;;;;;;;6.60;5.97;;;20.30;99.90;;;;;;4959062;29;20461;-80
2022/09/11 10:07:52;;;;;;;6.17;5.70;;;20.20;99.90;;;;;;4944086;29;20439;-83
2022/09/11 10:10:36;;;;;;;5.80;5.30;;;20.00;99.90;;;;;;4959297;29;20477;-81
2022/09/11 10:13:19;;;;;;;5.40;5.00;;;19.80;99.90;;;;;;4945249;29;20408;-81
2022/09/11 10:15:58;;;;;;;5.00;4.70;;;19.30;99.90;;;;;;4961743;29;20582;-86
2022/09/11 10:18:31;;;;;;;5.47;4.97;;;18.80;99.90;;;;;;4949316;29;20478;-81
2022/09/11 10:21:10;;;;;;;5.63;5.20;;;18.60;99.90;;;;;;4976404;28;20451;-82
2022/09/11 10:23:54;;;;;;;5.43;5.03;;;18.40;99.90;;;;;;4972654;29;20449;-81
2022/09/11 10:26:31;;;;;;;5.17;4.77;;;18.50;99.90;;;;;;4961168;29;20493;-83
2022/09/11 10:29:05;;;;;;;8.40;6.00;;;18.50;99.90;;;;;;4960044;28;20515;-82
2022/09/11 10:31:35;;;;;;;5.80;5.30;;;18.90;99.90;;;;;;4953988;29;20504;-81
2022/09/11 10:34:03;;;;;;;5.70;5.20;;;19.40;99.90;;;;;;4941663;29;20443;-81
2022/09/11 10:36:30;;;;;;;5.40;4.90;;;19.90;99.90;;;;;;4961187;29;20439;-80
2022/09/11 10:39:00;;;;;;;5.57;4.97;;;20.20;99.90;;;;;;4951364;29;20504;-78
2022/09/11 10:41:33;;;;;;;5.13;4.67;;;20.30;99.90;;;;;;4956942;29;20684;-80
2022/09/11 10:44:10;;;;;;;5.00;4.70;;;20.30;99.90;;;;;;4951708;29;20506;-83
2022/09/11 10:46:39;;;;;;;5.80;5.20;;;20.40;99.90;;;;;;4956669;29;20424;-82
2022/09/11 10:49:21;;;;;;;5.40;5.00;;;20.40;99.90;;;;;;4948231;29;20501;-82
2022/09/11 10:52:06;;;;;;;5.57;5.07;;;20.30;99.90;;;;;;4942433;29;20498;-81
2022/09/11 10:54:54;;;;;;;4.37;4.07;;;20.60;99.90;;;;;;4943067;29;20445;-82
2022/09/11 11:01:42;;;;;;;4.70;4.17;;;20.60;99.90;;;;;;4955971;29;20443;-83
2022/09/11 11:05:30;;;;;;;4.17;3.87;;;20.50;99.90;;;;;;4978227;29;20405;-84
2022/09/11 11:21:31;;;;;;;3.00;2.80;;;20.00;99.90;;;;;;4939230;29;20425;-82
2022/09/11 11:25:15;;;;;;;4.00;3.70;;;19.50;99.90;;;;;;4869994;29;20862;-82
2022/09/11 11:28:47;;;;;;;4.80;4.07;;;19.20;99.90;;;;;;4880461;29;20437;-83
2022/09/11 11:32:17;;;;;;;6.33;3.53;;;18.80;99.90;;;;;;5573887;23;20541;-83
2022/09/11 11:35:19;;;;;;;4.63;3.97;;;18.80;99.90;;;;;;4880800;29;20636;-82
2022/09/11 11:37:48;;;;;;;3.83;3.60;;;18.80;99.90;;;;;;4886875;29;20452;-82
2022/09/11 11:40:30;;;;;;;6.03;3.63;;;19.00;99.90;;;;;;4893387;29;20484;-82
2022/09/11 11:43:06;;;;;;;4.23;3.73;;;19.30;99.90;;;;;;4878080;29;20767;-83
2022/09/11 11:45:51;;;;;;;3.70;3.40;;;19.60;99.90;;;;;;4887293;29;20461;-82
2022/09/11 11:49:34;;;;;;;4.23;3.83;;;19.50;99.90;;;;;;4890367;29;20498;-85
2022/09/11 11:53:15;;;;;;;4.10;3.70;;;19.50;99.90;;;;;;4880630;29;20474;-85
2022/09/11 11:57:11;;;;;;;5.20;4.70;;;19.80;99.90;;;;;;4904861;29;20456;-84
2022/09/11 12:00:47;;;;;;;3.93;3.63;;;19.70;99.90;;;;;;4907633;29;20478;-85
2022/09/11 12:04:11;;;;;;;3.83;3.53;;;19.80;99.90;;;;;;4905851;29;20440;-80
2022/09/11 12:08:00;;;;;;;4.53;4.10;;;19.50;99.90;;;;;;4866430;29;20461;-82
2022/09/11 12:13:46;;;;;;;5.00;4.30;;;19.00;99.90;;;;;;4916263;23;20566;-78
2022/09/11 12:16:27;;;;;;;5.40;5.00;;;18.80;99.90;;;;;;4916324;29;20454;-82
2022/09/11 12:19:35;;;;;;;4.90;4.50;;;18.30;99.90;;;;;;4919290;29;20465;-83
2022/09/11 12:46:19;;;;;;;5.83;5.33;;;17.50;99.90;;;;;;5559427;23;20468;-83
2022/09/11 13:10:46;;;;;;;5.57;4.90;;;18.70;99.90;;;;;;5062060;23;20477;-82
2022/09/11 13:13:42;;;;;;;6.20;5.60;;;19.00;99.90;;;;;;4919768;29;20434;-83
2022/09/11 13:16:35;;;;;;;6.27;5.67;;;19.00;99.90;;;;;;4917419;29;20421;-81
2022/09/11 13:19:13;;;;;;;6.03;5.53;;;18.60;99.90;;;;;;4915268;29;20479;-79
2022/09/11 13:21:40;;;;;;;6.07;5.60;;;18.50;99.90;;;;;;4919805;29;20409;-82
2022/09/11 13:24:29;;;;;;;6.93;6.23;;;18.30;99.90;;;;;;4921709;29;20505;-82
2022/09/11 13:27:09;;;;;;;5.37;4.83;;;18.20;99.90;;;;;;4916762;29;20534;-82
2022/09/11 13:29:47;;;;;;;6.60;6.03;;;18.20;99.90;;;;;;4917910;29;20490;-83
2022/09/11 13:32:15;;;;;;;6.47;5.87;;;18.10;99.90;;;;;;4919468;29;20483;-82
2022/09/11 13:34:45;;;;;;;6.33;5.83;;;18.20;99.90;;;;;;4920361;29;20446;-80
2022/09/11 13:37:32;;;;;;;5.83;5.13;;;18.30;99.90;;;;;;4916988;29;20424;-85
2022/09/11 13:40:02;;;;;;;5.67;5.17;;;18.40;99.90;;;;;;4912854;29;20502;-82
2022/09/11 13:42:29;;;;;;;7.17;6.63;;;18.90;99.90;;;;;;4917200;29;20445;-82
2022/09/11 13:44:59;;;;;;;5.67;4.80;;;19.20;99.90;;;;;;4904981;29;20600;-81
2022/09/11 13:47:30;;;;;;;5.70;5.30;;;19.50;99.90;;;;;;4916645;29;20497;-82
2022/09/11 13:50:01;;;;;;;5.93;5.37;;;19.30;99.90;;;;;;4921478;29;20530;-82
2022/09/11 13:52:31;;;;;;;8.63;5.00;;;19.30;99.90;;;;;;4920007;29;20429;-82
2022/09/11 13:55:08;;;;;;;5.10;4.60;;;19.40;99.90;;;;;;4920887;29;20789;-79
2022/09/11 13:57:53;;;;;;;5.03;4.63;;;19.30;99.90;;;;;;4930075;29;20477;-82
2022/09/11 14:00:43;;;;;;;6.00;5.50;;;19.20;99.90;;;;;;4930626;29;20541;-80
2022/09/11 14:03:21;;;;;;;7.43;6.73;;;19.10;99.90;;;;;;4917183;29;20421;-82
2022/09/11 14:05:54;;;;;;;6.80;6.10;;;18.90;99.90;;;;;;4916791;29;20503;-80
2022/09/11 14:08:38;;;;;;;7.23;6.53;;;18.90;99.90;;;;;;4921447;29;20428;-83
2022/09/11 14:11:27;;;;;;;7.87;5.57;;;18.80;99.90;;;;;;4921785;29;20467;-83
2022/09/11 14:13:59;;;;;;;5.93;5.40;;;18.80;99.90;;;;;;4910827;29;20452;-79
2022/09/11 14:16:33;;;;;;;6.27;5.70;;;19.00;99.90;;;;;;4921701;29;20495;-82
2022/09/11 14:19:20;;;;;;;6.70;6.20;;;19.20;99.90;;;;;;4930147;29;20552;-81
2022/09/11 14:21:49;;;;;;;6.43;5.90;;;19.50;99.90;;;;;;4922816;29;20418;-81
2022/09/11 14:24:37;;;;;;;6.60;5.90;;;19.40;99.90;;;;;;4918128;29;20439;-82
2022/09/11 14:27:30;;;;;;;5.83;5.30;;;19.30;99.90;;;;;;4915050;29;20497;-82
2022/09/11 14:29:58;;;;;;;7.43;6.10;;;19.20;99.90;;;;;;4902463;29;20438;-82
2022/09/11 14:32:36;;;;;;;6.03;5.43;;;19.40;99.90;;;;;;4939182;29;20442;-82